Extreme high temperature From: 16-07-2018 05:00 Until: 19:00 warning for: Extreme high temperature Level: Yellow info button
suomi:
Hellevaroitus: Lähivuorokauden aikana on odotettavissa tukalaa hellettä.

svenska:
Varning för värmebölja: Under det närmaste dygnet är den svåra hettan att vänta.

english:
Heat wave warning: Warm weather is expected during the coming 24 hours. 


Thunder radar more information blitzortung!


Löydät sääaseman tiedot myös:

European Weather Network

Finland Weather Exchange

Weather Underground

AWEKAS



Weather Underground säähistoriasivu

Päivittäin yhteenveto Joulukuu 08, 2017 Yksiköt:  Molemmat    Englantilaiset   Metriset
« Edellinen Päivä
Seuraava Päivä »
Päivittäin Viikoittain Kuukausittain Vuosittain Mukautettu
  Korkea: Matala: Keskiarvo:
Lämpötila: TemperatureC °F /  -17.8 °C 0.2 °F /  -17.7 °C 1.8 °F /  -16.8 °C
Kastepiste: DewpointC °F /  -17.8 °C -0.2 °F /  -17.9 °C 1.4 °F /  -17 °C
Kosteus: Humidity % 92 % 96 %
Tuulen nopeus: WindSpeedKMH mph /  0 km/h - 2.5 mph /  4 km/h
Tuulenpuuska: WindSpeedGustKMH mph /  0 km/h - -
Tuuli:- - South
Ilmanpaine: PressurehPa in /  0 hPa 981.6 in /  33237 hPa -
Sade: 0.0 in /  0 mm    
Historical Graphs
 
 
Taulukkotiedot Joulukuu 08, 2017
Aika Lämpötila Kastepiste Ilmanpaine Tuuli Tuulen nopeus Tuulenpuuska Kosteus Sademäärä (tunneittain)
TemperatureC °F /  -17.8 °C DewpointC °F /  -17.8 °C PressurehPa in /  0 hPa Calm     Humidity % HourlyPrecipMM in /  0 mm
00:00 0.2 °F /  -17.7 °C -0.2 °F /  -17.9 °C 985.7 in /  33375.8 hPa South 3.2 mph /  5.1 km/h 11.3 mph /  18.2 km/h 97 % 0.0 in /  0 mm
00:30 0.4 °F /  -17.6 °C 0.0 °F /  -17.8 °C 985.3 in /  33362.3 hPa SSE 3.2 mph /  5.1 km/h 20.9 mph /  33.6 km/h 97 % 0.0 in /  0 mm
00:45 0.4 °F /  -17.6 °C 0.0 °F /  -17.8 °C 985.0 in /  33352.1 hPa South 3.2 mph /  5.1 km/h 11.3 mph /  18.2 km/h 97 % 0.0 in /  0 mm
01:00 0.5 °F /  -17.5 °C 0.1 °F /  -17.7 °C 985.0 in /  33352.1 hPa SSE 3.2 mph /  5.1 km/h 12.9 mph /  20.8 km/h 97 % 0.0 in /  0 mm
01:15 0.6 °F /  -17.4 °C 0.1 °F /  -17.7 °C 984.6 in /  33338.6 hPa SSE 3.2 mph /  5.1 km/h 14.5 mph /  23.3 km/h 97 % 0.0 in /  0 mm
01:30 0.6 °F /  -17.4 °C 0.2 °F /  -17.7 °C 984.6 in /  33338.6 hPa SSW 3.2 mph /  5.1 km/h 16.1 mph /  25.9 km/h 97 % 0.0 in /  0 mm
01:45 0.7 °F /  -17.4 °C 0.3 °F /  -17.6 °C 984.3 in /  33328.4 hPa South 3.2 mph /  5.1 km/h 9.7 mph /  15.6 km/h 97 % 0.0 in /  0 mm
02:00 0.8 °F /  -17.3 °C 0.4 °F /  -17.6 °C 984.3 in /  33328.4 hPa SSE 3.2 mph /  5.1 km/h 17.7 mph /  28.5 km/h 97 % 0.0 in /  0 mm
02:15 0.9 °F /  -17.3 °C 0.5 °F /  -17.5 °C 984.3 in /  33328.4 hPa SSW 4.8 mph /  7.7 km/h 14.5 mph /  23.3 km/h 97 % 0.0 in /  0 mm
02:30 0.9 °F /  -17.3 °C 0.5 °F /  -17.5 °C 984.0 in /  33318.2 hPa South 3.2 mph /  5.1 km/h 12.9 mph /  20.8 km/h 97 % 0.0 in /  0 mm
02:45 0.9 °F /  -17.3 °C 0.7 °F /  -17.4 °C 984.0 in /  33318.2 hPa SSE 3.2 mph /  5.1 km/h 11.3 mph /  18.2 km/h 98 % 0.0 in /  0 mm
03:00 0.9 °F /  -17.3 °C 0.5 °F /  -17.5 °C 984.0 in /  33318.2 hPa SSE 1.6 mph /  2.6 km/h 8.0 mph /  12.9 km/h 97 % 0.0 in /  0 mm
03:15 1.1 °F /  -17.2 °C 0.8 °F /  -17.3 °C 983.6 in /  33304.7 hPa South 4.8 mph /  7.7 km/h 14.5 mph /  23.3 km/h 98 % 0.0 in /  0 mm
03:30 1.1 °F /  -17.2 °C 0.8 °F /  -17.3 °C 983.6 in /  33304.7 hPa South 3.2 mph /  5.1 km/h 14.5 mph /  23.3 km/h 98 % 0.0 in /  0 mm
03:45 1.2 °F /  -17.1 °C 0.9 °F /  -17.3 °C 983.6 in /  33304.7 hPa South 1.6 mph /  2.6 km/h 11.3 mph /  18.2 km/h 98 % 0.0 in /  0 mm
04:00 1.2 °F /  -17.1 °C 0.9 °F /  -17.3 °C 983.3 in /  33294.5 hPa South 4.8 mph /  7.7 km/h 14.5 mph /  23.3 km/h 98 % 0.0 in /  0 mm
04:15 1.1 °F /  -17.2 °C 0.8 °F /  -17.3 °C 983.3 in /  33294.5 hPa SSE 1.6 mph /  2.6 km/h 11.3 mph /  18.2 km/h 98 % 0.0 in /  0 mm
04:30 1.2 °F /  -17.1 °C 0.9 °F /  -17.3 °C 983.0 in /  33284.4 hPa SSW 1.6 mph /  2.6 km/h 9.7 mph /  15.6 km/h 98 % 0.0 in /  0 mm
04:45 1.3 °F /  -17.1 °C 1.1 °F /  -17.2 °C 983.0 in /  33284.4 hPa SSW 3.2 mph /  5.1 km/h 11.3 mph /  18.2 km/h 98 % 0.0 in /  0 mm
05:00 1.3 °F /  -17.1 °C 1.0 °F /  -17.2 °C 982.6 in /  33270.8 hPa SSE 3.2 mph /  5.1 km/h 14.5 mph /  23.3 km/h 98 % 0.0 in /  0 mm
05:30 1.3 °F /  -17.1 °C 1.1 °F /  -17.2 °C 982.6 in /  33270.8 hPa SSE 1.6 mph /  2.6 km/h 12.9 mph /  20.8 km/h 98 % 0.0 in /  0 mm
06:00 1.5 °F /  -16.9 °C 1.2 °F /  -17.1 °C 982.3 in /  33260.7 hPa SSE 1.6 mph /  2.6 km/h 11.3 mph /  18.2 km/h 98 % 0.0 in /  0 mm
06:15 1.4 °F /  -17 °C 1.2 °F /  -17.1 °C 982.3 in /  33260.7 hPa Calm   8.0 mph /  12.9 km/h 98 % 0.0 in /  0 mm
06:30 1.4 °F /  -17 °C 1.2 °F /  -17.1 °C 982.3 in /  33260.7 hPa SSE 1.6 mph /  2.6 km/h 11.3 mph /  18.2 km/h 98 % 0.0 in /  0 mm
06:45 1.4 °F /  -17 °C 1.2 °F /  -17.1 °C 982.3 in /  33260.7 hPa SSE 1.6 mph /  2.6 km/h 9.7 mph /  15.6 km/h 98 % 0.0 in /  0 mm
07:00 1.6 °F /  -16.9 °C 1.3 °F /  -17.1 °C 981.9 in /  33247.1 hPa South 1.6 mph /  2.6 km/h 9.7 mph /  15.6 km/h 98 % 0.0 in /  0 mm
07:15 1.6 °F /  -16.9 °C 1.3 °F /  -17.1 °C 981.9 in /  33247.1 hPa South 1.6 mph /  2.6 km/h 8.0 mph /  12.9 km/h 98 % 0.0 in /  0 mm
07:30 1.6 °F /  -16.9 °C 1.3 °F /  -17.1 °C 981.9 in /  33247.1 hPa South 1.6 mph /  2.6 km/h 6.4 mph /  10.3 km/h 98 % 0.0 in /  0 mm
07:45 1.7 °F /  -16.8 °C 1.4 °F /  -17 °C 981.6 in /  33237 hPa South 1.6 mph /  2.6 km/h 11.3 mph /  18.2 km/h 98 % 0.0 in /  0 mm
08:00 1.7 °F /  -16.8 °C 1.4 °F /  -17 °C 981.6 in /  33237 hPa SSE 1.6 mph /  2.6 km/h 8.0 mph /  12.9 km/h 98 % 0.0 in /  0 mm
08:15 1.7 °F /  -16.8 °C 1.4 °F /  -17 °C 981.6 in /  33237 hPa SSE 1.6 mph /  2.6 km/h 11.3 mph /  18.2 km/h 98 % 0.0 in /  0 mm
08:30 1.8 °F /  -16.8 °C 1.5 °F /  -16.9 °C 981.9 in /  33247.1 hPa SSE 1.6 mph /  2.6 km/h 12.9 mph /  20.8 km/h 98 % 0.0 in /  0 mm
08:45 1.8 °F /  -16.8 °C 1.5 °F /  -16.9 °C 981.9 in /  33247.1 hPa SSE 1.6 mph /  2.6 km/h 11.3 mph /  18.2 km/h 98 % 0.0 in /  0 mm
09:00 1.8 °F /  -16.8 °C 1.6 °F /  -16.9 °C 981.9 in /  33247.1 hPa Calm   6.4 mph /  10.3 km/h 98 % 0.0 in /  0 mm
09:15 1.8 °F /  -16.8 °C 1.6 °F /  -16.9 °C 981.9 in /  33247.1 hPa Calm   3.2 mph /  5.1 km/h 98 % 0.0 in /  0 mm
09:30 1.9 °F /  -16.7 °C 1.7 °F /  -16.8 °C 981.9 in /  33247.1 hPa Calm   3.2 mph /  5.1 km/h 98 % 0.0 in /  0 mm
09:45 1.9 °F /  -16.7 °C 1.6 °F /  -16.9 °C 981.9 in /  33247.1 hPa South 1.6 mph /  2.6 km/h 8.0 mph /  12.9 km/h 98 % 0.0 in /  0 mm
10:00 1.9 °F /  -16.7 °C 1.7 °F /  -16.8 °C 981.9 in /  33247.1 hPa Calm   3.2 mph /  5.1 km/h 98 % 0.0 in /  0 mm
10:15 1.9 °F /  -16.7 °C 1.7 °F /  -16.8 °C 981.9 in /  33247.1 hPa Calm   3.2 mph /  5.1 km/h 98 % 0.0 in /  0 mm
10:30 2.1 °F /  -16.6 °C 1.8 °F /  -16.8 °C 981.9 in /  33247.1 hPa Calm   8.0 mph /  12.9 km/h 98 % 0.0 in /  0 mm
10:45 2.2 °F /  -16.6 °C 1.9 °F /  -16.7 °C 981.9 in /  33247.1 hPa SSE 1.6 mph /  2.6 km/h 9.7 mph /  15.6 km/h 98 % 0.0 in /  0 mm
11:00 2.4 °F /  -16.4 °C 2.1 °F /  -16.6 °C 981.9 in /  33247.1 hPa South 1.6 mph /  2.6 km/h 9.7 mph /  15.6 km/h 98 % 0.0 in /  0 mm
11:15 2.5 °F /  -16.4 °C 2.4 °F /  -16.4 °C 981.9 in /  33247.1 hPa South 1.6 mph /  2.6 km/h 8.0 mph /  12.9 km/h 99 % 0.0 in /  0 mm
11:30 2.5 °F /  -16.4 °C 2.4 °F /  -16.4 °C 981.6 in /  33237 hPa SSE 1.6 mph /  2.6 km/h 9.7 mph /  15.6 km/h 99 % 0.0 in /  0 mm
11:45 2.6 °F /  -16.3 °C 2.3 °F /  -16.5 °C 981.6 in /  33237 hPa South 3.2 mph /  5.1 km/h 12.9 mph /  20.8 km/h 98 % 0.0 in /  0 mm
12:00 2.7 °F /  -16.3 °C 2.4 °F /  -16.4 °C 981.9 in /  33247.1 hPa SSE 1.6 mph /  2.6 km/h 9.7 mph /  15.6 km/h 98 % 0.0 in /  0 mm
12:15 2.8 °F /  -16.2 °C 2.6 °F /  -16.3 °C 981.9 in /  33247.1 hPa SSW 1.6 mph /  2.6 km/h 9.7 mph /  15.6 km/h 99 % 0.0 in /  0 mm
12:45 2.8 °F /  -16.2 °C 2.6 °F /  -16.3 °C 981.9 in /  33247.1 hPa Calm   8.0 mph /  12.9 km/h 99 % 0.0 in /  0 mm
13:00 2.8 °F /  -16.2 °C 2.5 °F /  -16.4 °C 981.9 in /  33247.1 hPa Calm   9.7 mph /  15.6 km/h 98 % 0.0 in /  0 mm
14:00 2.8 °F /  -16.2 °C 2.5 °F /  -16.4 °C 981.6 in /  33237 hPa SSE 1.6 mph /  2.6 km/h 9.7 mph /  15.6 km/h 98 % 0.0 in /  0 mm
14:15 2.8 °F /  -16.2 °C 2.5 °F /  -16.4 °C 981.6 in /  33237 hPa SSE 3.2 mph /  5.1 km/h 16.1 mph /  25.9 km/h 98 % 0.0 in /  0 mm
14:30 2.8 °F /  -16.2 °C 2.5 °F /  -16.4 °C 981.6 in /  33237 hPa SSE 3.2 mph /  5.1 km/h 12.9 mph /  20.8 km/h 98 % 0.0 in /  0 mm
14:45 2.7 °F /  -16.3 °C 2.4 °F /  -16.4 °C 981.9 in /  33247.1 hPa South 3.2 mph /  5.1 km/h 11.3 mph /  18.2 km/h 98 % 0.0 in /  0 mm
15:00 2.7 °F /  -16.3 °C 2.4 °F /  -16.4 °C 981.6 in /  33237 hPa South 1.6 mph /  2.6 km/h 12.9 mph /  20.8 km/h 98 % 0.0 in /  0 mm
15:45 2.4 °F /  -16.4 °C 2.2 °F /  -16.6 °C 981.9 in /  33247.1 hPa Calm   8.0 mph /  12.9 km/h 98 % 0.0 in /  0 mm
16:00 2.4 °F /  -16.4 °C 2.2 °F /  -16.6 °C 981.9 in /  33247.1 hPa South 1.6 mph /  2.6 km/h 11.3 mph /  18.2 km/h 98 % 0.0 in /  0 mm
16:30 2.5 °F /  -16.4 °C 2.2 °F /  -16.6 °C 981.9 in /  33247.1 hPa SSE 1.6 mph /  2.6 km/h 8.0 mph /  12.9 km/h 98 % 0.0 in /  0 mm
17:00 2.4 °F /  -16.4 °C 2.2 °F /  -16.6 °C 981.6 in /  33237 hPa South 3.2 mph /  5.1 km/h 12.9 mph /  20.8 km/h 98 % 0.0 in /  0 mm
17:15 2.3 °F /  -16.5 °C 2.1 °F /  -16.6 °C 981.6 in /  33237 hPa SSE 3.2 mph /  5.1 km/h 14.5 mph /  23.3 km/h 98 % 0.0 in /  0 mm
17:30 2.4 °F /  -16.4 °C 2.1 °F /  -16.6 °C 981.6 in /  33237 hPa SSE 4.8 mph /  7.7 km/h 17.7 mph /  28.5 km/h 98 % 0.0 in /  0 mm
17:45 2.3 °F /  -16.5 °C 2.1 °F /  -16.6 °C 981.6 in /  33237 hPa South 1.6 mph /  2.6 km/h 14.5 mph /  23.3 km/h 98 % 0.0 in /  0 mm
18:00 2.4 °F /  -16.4 °C 2.1 °F /  -16.6 °C 981.9 in /  33247.1 hPa SSW 3.2 mph /  5.1 km/h 9.7 mph /  15.6 km/h 98 % 0.0 in /  0 mm
18:15 2.4 °F /  -16.4 °C 2.2 °F /  -16.6 °C 981.9 in /  33247.1 hPa South 3.2 mph /  5.1 km/h 16.1 mph /  25.9 km/h 98 % 0.0 in /  0 mm
19:00 2.4 °F /  -16.4 °C 1.8 °F /  -16.8 °C 981.9 in /  33247.1 hPa South 4.8 mph /  7.7 km/h 14.5 mph /  23.3 km/h 96 % 0.0 in /  0 mm
19:15 2.1 °F /  -16.6 °C 1.5 °F /  -16.9 °C 981.9 in /  33247.1 hPa SSE 1.6 mph /  2.6 km/h 9.7 mph /  15.6 km/h 96 % 0.0 in /  0 mm
19:30 2.1 °F /  -16.6 °C 1.6 °F /  -16.9 °C 981.9 in /  33247.1 hPa South 4.8 mph /  7.7 km/h 14.5 mph /  23.3 km/h 97 % 0.0 in /  0 mm
20:00 1.8 °F /  -16.8 °C 1.3 °F /  -17.1 °C 981.9 in /  33247.1 hPa South 3.2 mph /  5.1 km/h 14.5 mph /  23.3 km/h 96 % 0.0 in /  0 mm
20:15 1.8 °F /  -16.8 °C 1.2 °F /  -17.1 °C 981.9 in /  33247.1 hPa South 3.2 mph /  5.1 km/h 12.9 mph /  20.8 km/h 96 % 0.0 in /  0 mm
20:30 1.8 °F /  -16.8 °C 1.2 °F /  -17.1 °C 982.3 in /  33260.7 hPa South 3.2 mph /  5.1 km/h 11.3 mph /  18.2 km/h 96 % 0.0 in /  0 mm
20:45 1.9 °F /  -16.7 °C 1.4 °F /  -17 °C 982.3 in /  33260.7 hPa SSE 4.8 mph /  7.7 km/h 20.9 mph /  33.6 km/h 96 % 0.0 in /  0 mm
21:00 1.8 °F /  -16.8 °C 1.3 °F /  -17.1 °C 982.3 in /  33260.7 hPa South 3.2 mph /  5.1 km/h 11.3 mph /  18.2 km/h 96 % 0.0 in /  0 mm
21:15 1.8 °F /  -16.8 °C 1.3 °F /  -17.1 °C 981.9 in /  33247.1 hPa SSE 4.8 mph /  7.7 km/h 16.1 mph /  25.9 km/h 96 % 0.0 in /  0 mm
21:30 1.8 °F /  -16.8 °C 1.2 °F /  -17.1 °C 982.3 in /  33260.7 hPa SSE 3.2 mph /  5.1 km/h 16.1 mph /  25.9 km/h 96 % 0.0 in /  0 mm
21:45 1.8 °F /  -16.8 °C 1.2 °F /  -17.1 °C 981.9 in /  33247.1 hPa South 3.2 mph /  5.1 km/h 14.5 mph /  23.3 km/h 96 % 0.0 in /  0 mm
22:00 1.9 °F /  -16.7 °C 1.3 °F /  -17.1 °C 982.3 in /  33260.7 hPa South 4.8 mph /  7.7 km/h 27.4 mph /  44.1 km/h 96 % 0.0 in /  0 mm
22:30 2.3 °F /  -16.5 °C 1.5 °F /  -16.9 °C 982.3 in /  33260.7 hPa South 6.4 mph /  10.3 km/h 22.5 mph /  36.2 km/h 94 % 0.0 in /  0 mm
23:00 2.3 °F /  -16.5 °C 1.3 °F /  -17.1 °C 982.3 in /  33260.7 hPa South 4.8 mph /  7.7 km/h 14.5 mph /  23.3 km/h 93 % 0.0 in /  0 mm
23:30 2.7 °F /  -16.3 °C 1.5 °F /  -16.9 °C 982.3 in /  33260.7 hPa SSE 6.4 mph /  10.3 km/h 17.7 mph /  28.5 km/h 92 % 0.0 in /  0 mm
23:45 2.7 °F /  -16.3 °C 1.7 °F /  -16.8 °C 982.3 in /  33260.7 hPa SSE 8.0 mph /  12.9 km/h 19.3 mph /  31.1 km/h 93 % 0.0 in /  0 mm
Esan sääasema
Terveisin Weather Underground - 2.75 mb

Alkuperäinen skripti  Jim McMurry - jmcmurry@mwt.net Sovitettu myös templatelle  Wim van der Kuil - Leuven-Template.eu

Laitteet joita käytämme:

Sääasema
Davis VP2

Sääasemaohjelma
Cumulus

Sääaseman tietokone
Asus EeePC

Palveluntarjoaja
Suncomet

Davis VP2

Cumulus

Asus EeePC

Suncomet